sensor_id;sensor_type;location;lat;lon;timestamp;P1;durP1;ratioP1;P2;durP2;ratioP2
75356;SDS011;63946;51.986;5.930;2023-04-25T05:13:39;5.18;;;2.78;;
75356;SDS011;63946;51.986;5.930;2023-04-25T05:16:31;7.82;;;2.40;;
75356;SDS011;63946;51.986;5.930;2023-04-25T05:19:34;7.55;;;2.90;;
75356;SDS011;63946;51.986;5.930;2023-04-25T05:22:29;8.50;;;2.45;;
75356;SDS011;63946;51.986;5.930;2023-04-25T05:25:37;11.25;;;3.83;;
75356;SDS011;63946;51.986;5.930;2023-04-25T05:28:12;12.25;;;3.13;;
75356;SDS011;63946;51.986;5.930;2023-04-25T05:31:18;6.32;;;3.42;;
75356;SDS011;63946;51.986;5.930;2023-04-25T05:33:55;8.27;;;3.05;;
75356;SDS011;63946;51.986;5.930;2023-04-25T05:39:01;10.90;;;2.63;;
75356;SDS011;63946;51.986;5.930;2023-04-25T05:41:52;10.73;;;2.50;;
75356;SDS011;63946;51.986;5.930;2023-04-25T05:44:41;11.45;;;2.58;;
75356;SDS011;63946;51.986;5.930;2023-04-25T05:47:23;8.18;;;2.42;;
75356;SDS011;63946;51.986;5.930;2023-04-25T05:50:09;9.80;;;3.08;;
75356;SDS011;63946;51.986;5.930;2023-04-25T05:52:48;7.82;;;2.45;;
75356;SDS011;63946;51.986;5.930;2023-04-25T05:55:28;9.35;;;2.38;;
75356;SDS011;63946;51.986;5.930;2023-04-25T05:57:59;8.15;;;2.85;;
75356;SDS011;63946;51.986;5.930;2023-04-25T06:00:28;7.57;;;3.42;;
75356;SDS011;63946;51.986;5.930;2023-04-25T06:02:57;8.27;;;2.80;;
75356;SDS011;63946;51.986;5.930;2023-04-25T06:05:26;7.57;;;3.17;;
75356;SDS011;63946;51.986;5.930;2023-04-25T06:07:55;12.65;;;4.05;;
75356;SDS011;63946;51.986;5.930;2023-04-25T06:10:24;7.10;;;2.90;;
75356;SDS011;63946;51.986;5.930;2023-04-25T06:12:56;6.38;;;2.90;;
75356;SDS011;63946;51.986;5.930;2023-04-25T06:15:25;9.23;;;3.55;;
75356;SDS011;63946;51.986;5.930;2023-04-25T06:17:56;5.60;;;2.85;;
75356;SDS011;63946;51.986;5.930;2023-04-25T06:20:25;7.72;;;2.88;;
75356;SDS011;63946;51.986;5.930;2023-04-25T06:22:59;11.23;;;3.15;;
75356;SDS011;63946;51.986;5.930;2023-04-25T06:25:48;6.40;;;2.38;;
75356;SDS011;63946;51.986;5.930;2023-04-25T06:28:25;8.07;;;2.80;;
75356;SDS011;63946;51.986;5.930;2023-04-25T06:30:54;7.65;;;2.38;;
75356;SDS011;63946;51.986;5.930;2023-04-25T06:33:23;10.15;;;3.00;;
75356;SDS011;63946;51.986;5.930;2023-04-25T06:35:55;6.95;;;2.13;;
75356;SDS011;63946;51.986;5.930;2023-04-25T06:40:56;7.85;;;2.70;;
75356;SDS011;63946;51.986;5.930;2023-04-25T06:43:29;7.43;;;2.33;;
75356;SDS011;63946;51.986;5.930;2023-04-25T06:46:01;6.22;;;2.20;;
75356;SDS011;63946;51.986;5.930;2023-04-25T06:48:32;7.47;;;2.85;;
75356;SDS011;63946;51.986;5.930;2023-04-25T06:51:01;6.70;;;2.30;;
75356;SDS011;63946;51.986;5.930;2023-04-25T06:53:30;7.18;;;2.72;;
75356;SDS011;63946;51.986;5.930;2023-04-25T06:56:02;11.63;;;2.58;;
75356;SDS011;63946;51.986;5.930;2023-04-25T06:58:47;5.00;;;2.15;;
75356;SDS011;63946;51.986;5.930;2023-04-25T07:01:37;8.82;;;2.92;;
75356;SDS011;63946;51.986;5.930;2023-04-25T07:04:13;5.90;;;2.58;;
75356;SDS011;63946;51.986;5.930;2023-04-25T07:06:47;8.18;;;2.53;;
75356;SDS011;63946;51.986;5.930;2023-04-25T07:09:21;6.05;;;2.10;;
75356;SDS011;63946;51.986;5.930;2023-04-25T07:11:50;5.78;;;1.83;;
75356;SDS011;63946;51.986;5.930;2023-04-25T07:14:20;9.45;;;1.83;;
75356;SDS011;63946;51.986;5.930;2023-04-25T07:16:49;10.77;;;2.50;;
75356;SDS011;63946;51.986;5.930;2023-04-25T07:19:18;6.82;;;2.63;;
75356;SDS011;63946;51.986;5.930;2023-04-25T07:21:49;9.60;;;2.33;;
75356;SDS011;63946;51.986;5.930;2023-04-25T07:24:18;20.50;;;3.80;;
75356;SDS011;63946;51.986;5.930;2023-04-25T07:26:48;6.15;;;2.30;;
75356;SDS011;63946;51.986;5.930;2023-04-25T07:29:37;8.13;;;1.92;;
75356;SDS011;63946;51.986;5.930;2023-04-25T07:32:06;12.18;;;2.75;;
75356;SDS011;63946;51.986;5.930;2023-04-25T07:34:41;6.43;;;2.67;;
75356;SDS011;63946;51.986;5.930;2023-04-25T07:37:10;7.78;;;2.70;;
75356;SDS011;63946;51.986;5.930;2023-04-25T07:39:52;8.57;;;2.45;;
75356;SDS011;63946;51.986;5.930;2023-04-25T07:42:27;9.23;;;2.55;;
75356;SDS011;63946;51.986;5.930;2023-04-25T07:44:56;10.25;;;2.28;;
75356;SDS011;63946;51.986;5.930;2023-04-25T07:47:25;7.75;;;1.98;;
75356;SDS011;63946;51.986;5.930;2023-04-25T07:49:54;4.55;;;1.67;;
75356;SDS011;63946;51.986;5.930;2023-04-25T07:52:26;5.00;;;1.77;;
75356;SDS011;63946;51.986;5.930;2023-04-25T07:55:02;8.00;;;2.00;;
75356;SDS011;63946;51.986;5.930;2023-04-25T07:57:41;5.72;;;1.85;;
75356;SDS011;63946;51.986;5.930;2023-04-25T08:00:10;5.05;;;1.77;;
75356;SDS011;63946;51.986;5.930;2023-04-25T08:02:41;7.82;;;1.80;;
75356;SDS011;63946;51.986;5.930;2023-04-25T08:05:15;6.13;;;2.17;;
75356;SDS011;63946;51.986;5.930;2023-04-25T08:07:49;4.60;;;1.50;;
75356;SDS011;63946;51.986;5.930;2023-04-25T08:10:18;6.03;;;1.50;;
75356;SDS011;63946;51.986;5.930;2023-04-25T08:12:48;4.88;;;1.30;;
75356;SDS011;63946;51.986;5.930;2023-04-25T08:15:18;6.15;;;1.38;;
75356;SDS011;63946;51.986;5.930;2023-04-25T08:17:47;5.00;;;1.48;;
75356;SDS011;63946;51.986;5.930;2023-04-25T08:20:16;4.68;;;1.40;;
75356;SDS011;63946;51.986;5.930;2023-04-25T08:22:45;4.63;;;2.10;;
75356;SDS011;63946;51.986;5.930;2023-04-25T08:25:32;8.90;;;1.90;;
75356;SDS011;63946;51.986;5.930;2023-04-25T08:28:01;5.50;;;1.30;;
75356;SDS011;63946;51.986;5.930;2023-04-25T08:30:32;4.30;;;1.10;;
75356;SDS011;63946;51.986;5.930;2023-04-25T08:33:10;3.92;;;1.20;;
75356;SDS011;63946;51.986;5.930;2023-04-25T08:35:54;6.78;;;1.02;;
75356;SDS011;63946;51.986;5.930;2023-04-25T08:38:25;6.10;;;1.83;;
75356;SDS011;63946;51.986;5.930;2023-04-25T08:40:54;4.30;;;1.08;;
75356;SDS011;63946;51.986;5.930;2023-04-25T08:45:53;4.35;;;1.00;;
75356;SDS011;63946;51.986;5.930;2023-04-25T08:48:39;7.32;;;1.73;;
75356;SDS011;63946;51.986;5.930;2023-04-25T08:51:09;3.03;;;1.20;;
75356;SDS011;63946;51.986;5.930;2023-04-25T08:53:51;7.93;;;1.20;;
75356;SDS011;63946;51.986;5.930;2023-04-25T08:56:20;6.10;;;1.27;;
75356;SDS011;63946;51.986;5.930;2023-04-25T08:58:54;5.63;;;1.20;;
75356;SDS011;63946;51.986;5.930;2023-04-25T09:01:27;4.68;;;1.20;;
75356;SDS011;63946;51.986;5.930;2023-04-25T09:03:57;7.22;;;1.80;;
75356;SDS011;63946;51.986;5.930;2023-04-25T09:06:26;7.05;;;1.55;;
75356;SDS011;63946;51.986;5.930;2023-04-25T09:09:06;6.55;;;1.15;;
75356;SDS011;63946;51.986;5.930;2023-04-25T09:11:36;5.32;;;1.27;;
75356;SDS011;63946;51.986;5.930;2023-04-25T09:17:13;5.15;;;1.35;;
75356;SDS011;63946;51.986;5.930;2023-04-25T09:19:52;3.70;;;1.40;;
75356;SDS011;63946;51.986;5.930;2023-04-25T09:22:30;5.07;;;1.05;;
75356;SDS011;63946;51.986;5.930;2023-04-25T09:25:08;4.28;;;1.73;;
75356;SDS011;63946;51.986;5.930;2023-04-25T09:27:51;4.15;;;1.00;;
75356;SDS011;63946;51.986;5.930;2023-04-25T09:30:31;5.10;;;1.02;;
75356;SDS011;63946;51.986;5.930;2023-04-25T09:33:29;6.57;;;1.83;;
75356;SDS011;63946;51.986;5.930;2023-04-25T09:36:05;2.83;;;1.00;;
75356;SDS011;63946;51.986;5.930;2023-04-25T09:38:58;4.18;;;1.20;;
75356;SDS011;63946;51.986;5.930;2023-04-25T09:41:32;2.63;;;1.08;;
75356;SDS011;63946;51.986;5.930;2023-04-25T09:44:08;3.63;;;1.00;;
75356;SDS011;63946;51.986;5.930;2023-04-25T09:46:37;4.22;;;1.30;;
75356;SDS011;63946;51.986;5.930;2023-04-25T09:49:14;2.97;;;0.90;;
75356;SDS011;63946;51.986;5.930;2023-04-25T09:52:01;5.22;;;1.00;;
75356;SDS011;63946;51.986;5.930;2023-04-25T09:54:51;2.63;;;1.20;;
75356;SDS011;63946;51.986;5.930;2023-04-25T09:59:57;5.45;;;1.08;;
75356;SDS011;63946;51.986;5.930;2023-04-25T10:02:40;4.63;;;1.10;;
75356;SDS011;63946;51.986;5.930;2023-04-25T10:05:19;2.40;;;1.05;;
75356;SDS011;63946;51.986;5.930;2023-04-25T10:07:50;3.85;;;0.95;;
75356;SDS011;63946;51.986;5.930;2023-04-25T10:10:22;4.03;;;1.23;;
75356;SDS011;63946;51.986;5.930;2023-04-25T10:15:36;5.15;;;0.95;;
75356;SDS011;63946;51.986;5.930;2023-04-25T10:18:06;4.68;;;0.90;;
75356;SDS011;63946;51.986;5.930;2023-04-25T10:20:35;4.13;;;1.17;;
75356;SDS011;63946;51.986;5.930;2023-04-25T10:23:06;3.25;;;0.93;;
75356;SDS011;63946;51.986;5.930;2023-04-25T10:25:45;5.32;;;1.05;;
75356;SDS011;63946;51.986;5.930;2023-04-25T10:28:14;6.13;;;1.10;;
75356;SDS011;63946;51.986;5.930;2023-04-25T10:31:01;5.38;;;1.35;;
75356;SDS011;63946;51.986;5.930;2023-04-25T10:33:36;3.90;;;1.05;;
75356;SDS011;63946;51.986;5.930;2023-04-25T10:36:13;3.97;;;0.90;;
75356;SDS011;63946;51.986;5.930;2023-04-25T10:38:53;5.78;;;1.00;;
75356;SDS011;63946;51.986;5.930;2023-04-25T10:41:23;5.35;;;1.40;;
75356;SDS011;63946;51.986;5.930;2023-04-25T10:44:00;3.75;;;1.20;;
75356;SDS011;63946;51.986;5.930;2023-04-25T10:46:29;5.15;;;1.20;;
75356;SDS011;63946;51.986;5.930;2023-04-25T10:49:01;4.43;;;1.30;;
75356;SDS011;63946;51.986;5.930;2023-04-25T10:51:31;3.53;;;1.10;;
75356;SDS011;63946;51.986;5.930;2023-04-25T10:54:04;3.78;;;1.20;;
75356;SDS011;63946;51.986;5.930;2023-04-25T10:56:38;5.28;;;1.10;;
75356;SDS011;63946;51.986;5.930;2023-04-25T11:01:45;4.95;;;1.10;;
75356;SDS011;63946;51.986;5.930;2023-04-25T11:04:25;6.38;;;1.17;;
75356;SDS011;63946;51.986;5.930;2023-04-25T11:09:31;4.93;;;1.20;;
75356;SDS011;63946;51.986;5.930;2023-04-25T11:12:01;4.38;;;1.15;;
75356;SDS011;63946;51.986;5.930;2023-04-25T11:14:33;3.28;;;0.90;;
75356;SDS011;63946;51.986;5.930;2023-04-25T11:17:05;5.43;;;1.30;;
75356;SDS011;63946;51.986;5.930;2023-04-25T11:19:34;5.47;;;1.13;;
75356;SDS011;63946;51.986;5.930;2023-04-25T11:22:03;6.07;;;1.10;;
75356;SDS011;63946;51.986;5.930;2023-04-25T11:24:35;1.98;;;0.77;;
75356;SDS011;63946;51.986;5.930;2023-04-25T11:27:04;6.38;;;1.40;;
75356;SDS011;63946;51.986;5.930;2023-04-25T11:29:36;3.60;;;0.73;;
75356;SDS011;63946;51.986;5.930;2023-04-25T11:32:05;3.97;;;0.75;;
75356;SDS011;63946;51.986;5.930;2023-04-25T11:34:37;3.50;;;0.70;;
75356;SDS011;63946;51.986;5.930;2023-04-25T11:37:08;2.55;;;0.88;;
75356;SDS011;63946;51.986;5.930;2023-04-25T11:39:42;2.15;;;0.88;;
75356;SDS011;63946;51.986;5.930;2023-04-25T11:42:24;3.75;;;1.10;;
75356;SDS011;63946;51.986;5.930;2023-04-25T11:44:53;1.65;;;0.70;;
75356;SDS011;63946;51.986;5.930;2023-04-25T11:47:31;2.90;;;1.25;;
75356;SDS011;63946;51.986;5.930;2023-04-25T11:50:06;1.88;;;0.82;;
75356;SDS011;63946;51.986;5.930;2023-04-25T11:52:39;2.72;;;0.85;;
75356;SDS011;63946;51.986;5.930;2023-04-25T11:55:19;3.95;;;1.40;;
75356;SDS011;63946;51.986;5.930;2023-04-25T11:57:49;1.63;;;0.80;;
75356;SDS011;63946;51.986;5.930;2023-04-25T12:00:26;3.17;;;0.73;;
75356;SDS011;63946;51.986;5.930;2023-04-25T12:02:56;4.32;;;1.13;;
75356;SDS011;63946;51.986;5.930;2023-04-25T12:05:31;4.78;;;0.80;;
75356;SDS011;63946;51.986;5.930;2023-04-25T12:08:17;4.05;;;1.15;;
75356;SDS011;63946;51.986;5.930;2023-04-25T12:10:46;4.15;;;1.13;;
75356;SDS011;63946;51.986;5.930;2023-04-25T12:13:27;4.20;;;1.10;;
75356;SDS011;63946;51.986;5.930;2023-04-25T12:16:03;5.68;;;1.10;;
75356;SDS011;63946;51.986;5.930;2023-04-25T12:18:45;4.57;;;1.10;;
75356;SDS011;63946;51.986;5.930;2023-04-25T12:21:14;3.65;;;1.13;;
75356;SDS011;63946;51.986;5.930;2023-04-25T12:27:02;3.72;;;1.17;;
75356;SDS011;63946;51.986;5.930;2023-04-25T12:29:38;4.65;;;1.23;;
75356;SDS011;63946;51.986;5.930;2023-04-25T12:32:07;4.65;;;0.90;;
75356;SDS011;63946;51.986;5.930;2023-04-25T12:34:36;2.80;;;1.15;;
75356;SDS011;63946;51.986;5.930;2023-04-25T12:37:08;3.35;;;1.13;;
75356;SDS011;63946;51.986;5.930;2023-04-25T12:39:38;2.45;;;0.85;;
75356;SDS011;63946;51.986;5.930;2023-04-25T12:42:09;4.30;;;1.00;;
75356;SDS011;63946;51.986;5.930;2023-04-25T12:44:41;4.13;;;0.98;;
75356;SDS011;63946;51.986;5.930;2023-04-25T12:47:11;4.78;;;1.30;;
75356;SDS011;63946;51.986;5.930;2023-04-25T12:49:40;3.38;;;0.90;;
75356;SDS011;63946;51.986;5.930;2023-04-25T12:52:09;5.38;;;1.17;;
75356;SDS011;63946;51.986;5.930;2023-04-25T12:54:38;5.35;;;1.00;;
75356;SDS011;63946;51.986;5.930;2023-04-25T12:57:07;3.42;;;1.10;;
75356;SDS011;63946;51.986;5.930;2023-04-25T12:59:36;2.47;;;0.90;;
75356;SDS011;63946;51.986;5.930;2023-04-25T13:02:05;5.63;;;1.08;;
75356;SDS011;63946;51.986;5.930;2023-04-25T13:04:37;8.95;;;1.20;;
75356;SDS011;63946;51.986;5.930;2023-04-25T13:07:09;5.25;;;1.50;;
75356;SDS011;63946;51.986;5.930;2023-04-25T13:09:38;4.03;;;1.02;;
75356;SDS011;63946;51.986;5.930;2023-04-25T13:12:09;5.93;;;1.35;;
75356;SDS011;63946;51.986;5.930;2023-04-25T13:14:38;6.00;;;1.20;;
75356;SDS011;63946;51.986;5.930;2023-04-25T13:17:07;4.13;;;1.08;;
75356;SDS011;63946;51.986;5.930;2023-04-25T13:19:36;3.22;;;1.02;;
75356;SDS011;63946;51.986;5.930;2023-04-25T13:22:08;4.40;;;1.15;;
75356;SDS011;63946;51.986;5.930;2023-04-25T13:24:37;4.18;;;1.02;;
75356;SDS011;63946;51.986;5.930;2023-04-25T13:27:08;4.20;;;1.15;;
75356;SDS011;63946;51.986;5.930;2023-04-25T13:29:37;3.58;;;1.17;;
75356;SDS011;63946;51.986;5.930;2023-04-25T13:32:08;1.98;;;0.88;;
75356;SDS011;63946;51.986;5.930;2023-04-25T13:34:37;4.22;;;0.77;;
75356;SDS011;63946;51.986;5.930;2023-04-25T13:37:06;4.57;;;0.98;;
75356;SDS011;63946;51.986;5.930;2023-04-25T13:39:49;3.20;;;1.00;;
75356;SDS011;63946;51.986;5.930;2023-04-25T13:42:23;3.83;;;1.00;;
75356;SDS011;63946;51.986;5.930;2023-04-25T13:44:51;2.47;;;1.08;;
75356;SDS011;63946;51.986;5.930;2023-04-25T13:47:20;2.80;;;1.00;;
75356;SDS011;63946;51.986;5.930;2023-04-25T13:49:50;2.83;;;0.73;;
75356;SDS011;63946;51.986;5.930;2023-04-25T13:52:19;1.33;;;0.80;;
75356;SDS011;63946;51.986;5.930;2023-04-25T13:54:49;4.47;;;1.30;;
75356;SDS011;63946;51.986;5.930;2023-04-25T13:57:19;4.97;;;1.17;;
75356;SDS011;63946;51.986;5.930;2023-04-25T13:59:50;2.22;;;0.90;;
75356;SDS011;63946;51.986;5.930;2023-04-25T14:02:19;4.43;;;1.08;;
75356;SDS011;63946;51.986;5.930;2023-04-25T14:04:48;4.22;;;1.08;;
75356;SDS011;63946;51.986;5.930;2023-04-25T14:07:16;2.90;;;1.08;;
75356;SDS011;63946;51.986;5.930;2023-04-25T14:09:46;4.00;;;0.95;;
75356;SDS011;63946;51.986;5.930;2023-04-25T14:12:15;3.47;;;1.33;;
75356;SDS011;63946;51.986;5.930;2023-04-25T14:14:44;5.93;;;1.15;;
75356;SDS011;63946;51.986;5.930;2023-04-25T14:17:16;5.50;;;1.02;;
75356;SDS011;63946;51.986;5.930;2023-04-25T14:19:45;3.53;;;0.80;;
75356;SDS011;63946;51.986;5.930;2023-04-25T14:22:18;3.25;;;0.80;;
75356;SDS011;63946;51.986;5.930;2023-04-25T14:24:46;4.47;;;1.00;;
75356;SDS011;63946;51.986;5.930;2023-04-25T14:27:15;4.97;;;1.60;;
75356;SDS011;63946;51.986;5.930;2023-04-25T14:29:50;2.08;;;0.80;;
75356;SDS011;63946;51.986;5.930;2023-04-25T14:32:19;3.83;;;0.85;;
75356;SDS011;63946;51.986;5.930;2023-04-25T14:34:48;4.07;;;1.00;;
75356;SDS011;63946;51.986;5.930;2023-04-25T14:37:17;3.65;;;0.85;;
75356;SDS011;63946;51.986;5.930;2023-04-25T14:39:46;3.03;;;1.08;;
75356;SDS011;63946;51.986;5.930;2023-04-25T14:42:17;1.73;;;0.70;;
75356;SDS011;63946;51.986;5.930;2023-04-25T14:44:46;4.13;;;0.70;;
75356;SDS011;63946;51.986;5.930;2023-04-25T14:47:18;2.92;;;0.90;;
75356;SDS011;63946;51.986;5.930;2023-04-25T14:49:50;3.78;;;1.10;;
75356;SDS011;63946;51.986;5.930;2023-04-25T14:52:20;5.13;;;1.10;;
75356;SDS011;63946;51.986;5.930;2023-04-25T14:54:50;2.70;;;0.88;;
75356;SDS011;63946;51.986;5.930;2023-04-25T14:57:19;3.60;;;1.10;;
75356;SDS011;63946;51.986;5.930;2023-04-25T14:59:48;3.58;;;1.08;;
75356;SDS011;63946;51.986;5.930;2023-04-25T15:02:19;3.25;;;1.10;;
75356;SDS011;63946;51.986;5.930;2023-04-25T15:04:48;5.03;;;1.50;;
75356;SDS011;63946;51.986;5.930;2023-04-25T15:07:16;3.30;;;1.35;;
75356;SDS011;63946;51.986;5.930;2023-04-25T15:09:47;4.00;;;1.52;;
75356;SDS011;63946;51.986;5.930;2023-04-25T15:12:19;3.75;;;0.93;;
75356;SDS011;63946;51.986;5.930;2023-04-25T15:14:48;3.13;;;1.17;;
75356;SDS011;63946;51.986;5.930;2023-04-25T15:17:17;1.90;;;0.95;;
75356;SDS011;63946;51.986;5.930;2023-04-25T15:19:48;1.67;;;0.90;;
75356;SDS011;63946;51.986;5.930;2023-04-25T15:22:19;3.05;;;0.88;;
75356;SDS011;63946;51.986;5.930;2023-04-25T15:24:51;2.92;;;0.93;;
75356;SDS011;63946;51.986;5.930;2023-04-25T15:27:24;2.63;;;0.90;;
75356;SDS011;63946;51.986;5.930;2023-04-25T15:29:56;3.10;;;1.00;;
75356;SDS011;63946;51.986;5.930;2023-04-25T15:32:25;2.90;;;1.48;;
75356;SDS011;63946;51.986;5.930;2023-04-25T15:34:56;5.85;;;1.60;;
75356;SDS011;63946;51.986;5.930;2023-04-25T15:37:27;5.05;;;1.30;;
75356;SDS011;63946;51.986;5.930;2023-04-25T15:42:36;6.28;;;1.33;;
75356;SDS011;63946;51.986;5.930;2023-04-25T15:45:13;4.28;;;0.90;;
75356;SDS011;63946;51.986;5.930;2023-04-25T15:47:42;5.28;;;1.27;;
75356;SDS011;63946;51.986;5.930;2023-04-25T15:50:13;3.58;;;1.08;;
75356;SDS011;63946;51.986;5.930;2023-04-25T15:52:43;2.42;;;1.08;;
75356;SDS011;63946;51.986;5.930;2023-04-25T15:55:17;3.38;;;1.25;;
75356;SDS011;63946;51.986;5.930;2023-04-25T15:57:50;3.53;;;1.05;;
75356;SDS011;63946;51.986;5.930;2023-04-25T16:00:19;6.55;;;1.02;;
75356;SDS011;63946;51.986;5.930;2023-04-25T16:02:51;3.53;;;1.40;;
75356;SDS011;63946;51.986;5.930;2023-04-25T16:05:20;4.90;;;1.13;;
75356;SDS011;63946;51.986;5.930;2023-04-25T16:07:50;5.07;;;1.02;;
75356;SDS011;63946;51.986;5.930;2023-04-25T16:10:24;6.50;;;1.20;;
75356;SDS011;63946;51.986;5.930;2023-04-25T16:12:53;2.65;;;1.35;;
75356;SDS011;63946;51.986;5.930;2023-04-25T16:15:22;1.38;;;0.85;;
75356;SDS011;63946;51.986;5.930;2023-04-25T16:17:53;3.80;;;0.90;;
75356;SDS011;63946;51.986;5.930;2023-04-25T16:20:22;3.40;;;1.30;;
75356;SDS011;63946;51.986;5.930;2023-04-25T16:22:52;3.78;;;0.80;;
75356;SDS011;63946;51.986;5.930;2023-04-25T16:25:21;2.78;;;1.10;;
75356;SDS011;63946;51.986;5.930;2023-04-25T16:27:49;2.42;;;0.68;;
75356;SDS011;63946;51.986;5.930;2023-04-25T16:30:20;3.25;;;0.90;;
75356;SDS011;63946;51.986;5.930;2023-04-25T16:32:58;4.20;;;1.27;;
75356;SDS011;63946;51.986;5.930;2023-04-25T16:35:27;4.75;;;1.17;;
75356;SDS011;63946;51.986;5.930;2023-04-25T16:37:57;2.97;;;1.10;;
75356;SDS011;63946;51.986;5.930;2023-04-25T16:40:26;5.22;;;1.38;;
75356;SDS011;63946;51.986;5.930;2023-04-25T16:42:55;4.50;;;1.05;;
75356;SDS011;63946;51.986;5.930;2023-04-25T16:45:29;2.95;;;0.90;;
75356;SDS011;63946;51.986;5.930;2023-04-25T16:47:57;1.85;;;0.82;;
75356;SDS011;63946;51.986;5.930;2023-04-25T16:50:26;3.15;;;1.20;;
75356;SDS011;63946;51.986;5.930;2023-04-25T16:52:55;2.60;;;1.00;;
75356;SDS011;63946;51.986;5.930;2023-04-25T16:55:26;3.58;;;1.00;;
75356;SDS011;63946;51.986;5.930;2023-04-25T16:57:54;4.35;;;1.00;;
75356;SDS011;63946;51.986;5.930;2023-04-25T17:00:26;5.05;;;1.13;;
75356;SDS011;63946;51.986;5.930;2023-04-25T17:02:54;3.88;;;1.50;;
75356;SDS011;63946;51.986;5.930;2023-04-25T17:05:24;3.05;;;1.00;;
75356;SDS011;63946;51.986;5.930;2023-04-25T17:07:55;3.38;;;1.20;;
75356;SDS011;63946;51.986;5.930;2023-04-25T17:10:24;2.55;;;0.85;;
75356;SDS011;63946;51.986;5.930;2023-04-25T17:12:56;4.63;;;1.10;;
75356;SDS011;63946;51.986;5.930;2023-04-25T17:15:25;5.90;;;1.15;;
75356;SDS011;63946;51.986;5.930;2023-04-25T17:17:59;2.50;;;0.90;;
75356;SDS011;63946;51.986;5.930;2023-04-25T17:20:28;3.47;;;1.27;;
75356;SDS011;63946;51.986;5.930;2023-04-25T17:22:57;3.22;;;1.23;;
75356;SDS011;63946;51.986;5.930;2023-04-25T17:25:31;3.42;;;1.08;;
75356;SDS011;63946;51.986;5.930;2023-04-25T17:28:03;5.55;;;1.33;;
75356;SDS011;63946;51.986;5.930;2023-04-25T17:30:32;3.50;;;1.00;;
75356;SDS011;63946;51.986;5.930;2023-04-25T17:33:09;4.90;;;1.63;;
75356;SDS011;63946;51.986;5.930;2023-04-25T17:35:38;6.85;;;1.63;;
75356;SDS011;63946;51.986;5.930;2023-04-25T17:38:07;4.53;;;1.30;;
75356;SDS011;63946;51.986;5.930;2023-04-25T17:40:39;2.38;;;1.20;;
75356;SDS011;63946;51.986;5.930;2023-04-25T17:43:08;3.75;;;1.05;;
75356;SDS011;63946;51.986;5.930;2023-04-25T17:45:40;3.67;;;1.30;;
75356;SDS011;63946;51.986;5.930;2023-04-25T17:48:11;5.57;;;1.10;;
75356;SDS011;63946;51.986;5.930;2023-04-25T17:50:42;4.10;;;1.38;;
75356;SDS011;63946;51.986;5.930;2023-04-25T17:53:20;3.83;;;1.48;;
75356;SDS011;63946;51.986;5.930;2023-04-25T17:55:49;4.82;;;1.23;;
75356;SDS011;63946;51.986;5.930;2023-04-25T17:58:18;5.15;;;1.00;;
75356;SDS011;63946;51.986;5.930;2023-04-25T18:00:52;3.65;;;1.45;;
75356;SDS011;63946;51.986;5.930;2023-04-25T18:03:21;3.03;;;1.77;;
75356;SDS011;63946;51.986;5.930;2023-04-25T18:05:52;5.90;;;1.40;;
75356;SDS011;63946;51.986;5.930;2023-04-25T18:08:21;4.10;;;1.15;;
75356;SDS011;63946;51.986;5.930;2023-04-25T18:10:50;4.28;;;1.35;;
75356;SDS011;63946;51.986;5.930;2023-04-25T18:13:19;4.50;;;1.25;;
75356;SDS011;63946;51.986;5.930;2023-04-25T18:15:51;5.22;;;1.10;;
75356;SDS011;63946;51.986;5.930;2023-04-25T18:18:39;5.97;;;1.17;;
75356;SDS011;63946;51.986;5.930;2023-04-25T18:21:11;5.45;;;1.58;;
75356;SDS011;63946;51.986;5.930;2023-04-25T18:23:44;2.75;;;1.25;;
75356;SDS011;63946;51.986;5.930;2023-04-25T18:26:16;4.28;;;1.23;;
75356;SDS011;63946;51.986;5.930;2023-04-25T18:28:45;5.55;;;1.10;;
75356;SDS011;63946;51.986;5.930;2023-04-25T18:31:14;3.88;;;1.33;;
75356;SDS011;63946;51.986;5.930;2023-04-25T18:33:49;3.63;;;1.20;;
75356;SDS011;63946;51.986;5.930;2023-04-25T18:36:19;4.18;;;1.50;;
75356;SDS011;63946;51.986;5.930;2023-04-25T18:38:47;5.35;;;1.23;;
75356;SDS011;63946;51.986;5.930;2023-04-25T18:41:27;4.72;;;1.65;;
75356;SDS011;63946;51.986;5.930;2023-04-25T18:44:01;3.72;;;1.25;;
75356;SDS011;63946;51.986;5.930;2023-04-25T18:46:31;2.30;;;1.17;;
75356;SDS011;63946;51.986;5.930;2023-04-25T18:49:04;4.88;;;1.45;;
75356;SDS011;63946;51.986;5.930;2023-04-25T18:51:33;4.93;;;1.48;;
75356;SDS011;63946;51.986;5.930;2023-04-25T18:54:05;3.03;;;1.00;;
75356;SDS011;63946;51.986;5.930;2023-04-25T18:56:35;5.75;;;1.52;;
75356;SDS011;63946;51.986;5.930;2023-04-25T18:59:04;4.00;;;1.05;;
75356;SDS011;63946;51.986;5.930;2023-04-25T19:01:35;3.53;;;1.10;;
75356;SDS011;63946;51.986;5.930;2023-04-25T19:04:09;4.05;;;1.02;;
75356;SDS011;63946;51.986;5.930;2023-04-25T19:06:39;2.63;;;1.13;;
75356;SDS011;63946;51.986;5.930;2023-04-25T19:09:07;6.45;;;1.50;;
75356;SDS011;63946;51.986;5.930;2023-04-25T19:11:39;3.55;;;1.20;;
75356;SDS011;63946;51.986;5.930;2023-04-25T19:14:09;4.90;;;1.40;;
75356;SDS011;63946;51.986;5.930;2023-04-25T19:16:44;4.57;;;1.17;;
75356;SDS011;63946;51.986;5.930;2023-04-25T19:19:13;3.80;;;1.30;;
75356;SDS011;63946;51.986;5.930;2023-04-25T19:21:45;4.00;;;1.30;;
75356;SDS011;63946;51.986;5.930;2023-04-25T19:24:15;6.47;;;1.98;;
75356;SDS011;63946;51.986;5.930;2023-04-25T19:26:56;7.63;;;2.13;;
75356;SDS011;63946;51.986;5.930;2023-04-25T19:29:27;5.57;;;1.58;;
75356;SDS011;63946;51.986;5.930;2023-04-25T19:32:01;2.75;;;1.50;;
75356;SDS011;63946;51.986;5.930;2023-04-25T19:34:31;4.07;;;1.98;;
75356;SDS011;63946;51.986;5.930;2023-04-25T19:37:02;3.90;;;1.67;;
75356;SDS011;63946;51.986;5.930;2023-04-25T19:39:31;2.83;;;1.38;;
75356;SDS011;63946;51.986;5.930;2023-04-25T19:42:00;3.50;;;1.13;;
75356;SDS011;63946;51.986;5.930;2023-04-25T19:44:32;5.50;;;1.60;;
75356;SDS011;63946;51.986;5.930;2023-04-25T19:47:01;2.47;;;1.30;;
75356;SDS011;63946;51.986;5.930;2023-04-25T19:49:30;7.13;;;1.70;;
75356;SDS011;63946;51.986;5.930;2023-04-25T19:52:02;4.50;;;1.70;;
75356;SDS011;63946;51.986;5.930;2023-04-25T19:54:37;5.03;;;1.38;;
75356;SDS011;63946;51.986;5.930;2023-04-25T19:57:08;3.17;;;1.33;;
75356;SDS011;63946;51.986;5.930;2023-04-25T19:59:43;2.70;;;1.52;;
75356;SDS011;63946;51.986;5.930;2023-04-25T20:02:14;6.35;;;1.60;;
75356;SDS011;63946;51.986;5.930;2023-04-25T20:04:42;2.95;;;1.50;;
75356;SDS011;63946;51.986;5.930;2023-04-25T20:07:11;5.13;;;1.67;;
75356;SDS011;63946;51.986;5.930;2023-04-25T20:09:53;4.15;;;1.45;;
75356;SDS011;63946;51.986;5.930;2023-04-25T20:12:22;5.10;;;1.70;;
75356;SDS011;63946;51.986;5.930;2023-04-25T20:14:51;3.40;;;1.52;;
75356;SDS011;63946;51.986;5.930;2023-04-25T20:17:20;5.22;;;1.52;;
75356;SDS011;63946;51.986;5.930;2023-04-25T20:19:52;5.88;;;2.50;;
75356;SDS011;63946;51.986;5.930;2023-04-25T20:22:23;6.07;;;2.08;;
75356;SDS011;63946;51.986;5.930;2023-04-25T20:24:53;6.03;;;2.08;;
75356;SDS011;63946;51.986;5.930;2023-04-25T20:27:22;5.18;;;1.60;;
75356;SDS011;63946;51.986;5.930;2023-04-25T20:29:57;3.83;;;2.00;;
75356;SDS011;63946;51.986;5.930;2023-04-25T20:32:32;4.80;;;2.00;;
75356;SDS011;63946;51.986;5.930;2023-04-25T20:35:03;6.57;;;2.20;;
75356;SDS011;63946;51.986;5.930;2023-04-25T20:37:33;8.88;;;2.40;;
75356;SDS011;63946;51.986;5.930;2023-04-25T20:40:04;8.00;;;2.50;;
75356;SDS011;63946;51.986;5.930;2023-04-25T20:42:36;6.93;;;2.15;;
75356;SDS011;63946;51.986;5.930;2023-04-25T20:45:06;6.80;;;2.30;;
75356;SDS011;63946;51.986;5.930;2023-04-25T20:47:38;4.30;;;1.75;;
75356;SDS011;63946;51.986;5.930;2023-04-25T20:50:09;5.50;;;1.90;;
75356;SDS011;63946;51.986;5.930;2023-04-25T20:52:40;5.38;;;1.95;;
75356;SDS011;63946;51.986;5.930;2023-04-25T20:55:09;5.13;;;2.00;;
75356;SDS011;63946;51.986;5.930;2023-04-25T20:57:38;3.45;;;1.63;;
75356;SDS011;63946;51.986;5.930;2023-04-25T21:00:07;6.20;;;1.67;;